Time;durP1;ratioP1;P1;durP2;ratioP2;P2;SDS_P1;SDS_P2;PMS_P1;PMS_P2;Temp;Humidity;BMP_temperature;BMP_pressure;BME280_temperature;BME280_humidity;BME280_pressure;Samples;Min_cycle;Max_cycle;Signal;HPM_P1;HPM_P2
2022/09/20 00:00:49;;;;;;;2.25;1.10;;;;;;;;;;4864253;29;20148;-75
2022/09/20 00:03:16;;;;;;;0.95;0.38;;;;;;;;;;4864490;29;20057;-75
2022/09/20 00:05:43;;;;;;;3.00;0.60;;;;;;;;;;4881197;29;20033;-76
2022/09/20 00:08:11;;;;;;;0.75;0.32;;;;;;;;;;4864427;29;20033;-75
2022/09/20 00:10:38;;;;;;;1.75;0.43;;;;;;;;;;4880887;29;20040;-76
2022/09/20 00:13:08;;;;;;;1.00;0.40;;;;;;;;;;4864313;29;20116;-75
2022/09/20 00:15:34;;;;;;;4.38;0.63;;;;;;;;;;4864313;29;20029;-76
2022/09/20 00:18:00;;;;;;;1.83;0.60;;;;;;;;;;4880891;29;20021;-75
2022/09/20 00:20:26;;;;;;;1.35;0.50;;;;;;;;;;4864129;29;20053;-75
2022/09/20 00:22:52;;;;;;;3.80;0.50;;;;;;;;;;4864099;29;20450;-75
2022/09/20 00:25:19;;;;;;;1.55;0.47;;;;;;;;;;4880722;29;20035;-75
2022/09/20 00:27:46;;;;;;;1.33;0.30;;;;;;;;;;4880902;29;20029;-75
2022/09/20 00:30:13;;;;;;;0.95;0.50;;;;;;;;;;4864244;29;20504;-75
2022/09/20 00:32:39;;;;;;;2.45;0.50;;;;;;;;;;4880807;29;20414;-75
2022/09/20 00:35:06;;;;;;;3.30;0.60;;;;;;;;;;4880741;29;20053;-74
2022/09/20 00:37:33;;;;;;;0.95;0.40;;;;;;;;;;4863677;29;20033;-74
2022/09/20 00:39:59;;;;;;;1.75;0.65;;;;;;;;;;4863540;29;20123;-75
2022/09/20 00:42:29;;;;;;;0.90;0.50;;;;;;;;;;4863697;29;20136;-75
2022/09/20 00:44:57;;;;;;;1.23;0.50;;;;;;;;;;4880588;29;20029;-75
2022/09/20 00:47:43;;;;;;;2.35;0.60;;;;;;;;;;4863567;29;20029;-75
2022/09/20 00:50:12;;;;;;;1.83;0.60;;;;;;;;;;4862884;29;20119;-74
2022/09/20 00:52:39;;;;;;;1.40;0.50;;;;;;;;;;4863366;29;20029;-76
2022/09/20 00:55:07;;;;;;;2.35;0.57;;;;;;;;;;4863521;29;20035;-74
2022/09/20 00:57:35;;;;;;;1.17;0.63;;;;;;;;;;4863462;29;20085;-75
2022/09/20 01:00:03;;;;;;;1.80;0.77;;;;;;;;;;4863265;29;20051;-75
2022/09/20 01:02:30;;;;;;;1.77;1.00;;;;;;;;;;4863277;29;20036;-75
2022/09/20 01:04:57;;;;;;;1.60;0.35;;;;;;;;;;4863449;29;20033;-75
2022/09/20 01:07:23;;;;;;;1.98;0.70;;;;;;;;;;4863359;29;20049;-75
2022/09/20 01:09:50;;;;;;;1.98;0.52;;;;;;;;;;4863245;29;20029;-75
2022/09/20 01:12:18;;;;;;;1.98;0.52;;;;;;;;;;4863113;29;20057;-74
2022/09/20 01:14:46;;;;;;;1.50;0.65;;;;;;;;;;4863245;29;20033;-74
2022/09/20 01:17:13;;;;;;;1.67;0.60;;;;;;;;;;4863321;29;20025;-75
2022/09/20 01:19:47;;;;;;;1.55;0.68;;;;;;;;;;4879856;29;20093;-75
2022/09/20 01:22:36;;;;;;;1.23;0.50;;;;;;;;;;4863136;29;20537;-75
2022/09/20 01:25:05;;;;;;;1.00;0.50;;;;;;;;;;4853178;29;20431;-75
2022/09/20 01:27:40;;;;;;;5.88;0.90;;;;;;;;;;4863024;29;20037;-76
2022/09/20 01:30:08;;;;;;;3.00;0.65;;;;;;;;;;4862988;29;20025;-75
2022/09/20 01:32:53;;;;;;;4.78;0.88;;;;;;;;;;4879683;29;20482;-75
2022/09/20 01:35:20;;;;;;;1.20;0.50;;;;;;;;;;4863036;29;20036;-76
2022/09/20 01:38:05;;;;;;;1.92;0.75;;;;;;;;;;4862940;29;20418;-76
2022/09/20 01:40:34;;;;;;;1.25;0.60;;;;;;;;;;4879423;29;20052;-75
2022/09/20 01:43:20;;;;;;;2.03;0.75;;;;;;;;;;4862592;29;20072;-76
2022/09/20 01:45:48;;;;;;;1.73;0.60;;;;;;;;;;4856142;29;20045;-76
2022/09/20 01:48:35;;;;;;;1.52;0.75;;;;;;;;;;4862702;29;20029;-76
2022/09/20 01:51:20;;;;;;;1.55;0.60;;;;;;;;;;4862736;29;20080;-75
2022/09/20 01:53:55;;;;;;;1.25;0.60;;;;;;;;;;4862394;29;20085;-76
2022/09/20 01:56:34;;;;;;;2.88;0.80;;;;;;;;;;4862664;29;20055;-76
2022/09/20 01:59:10;;;;;;;1.33;0.60;;;;;;;;;;4862638;29;20131;-74
2022/09/20 02:01:51;;;;;;;2.72;0.90;;;;;;;;;;4862440;29;20041;-76
2022/09/20 02:04:36;;;;;;;1.13;0.65;;;;;;;;;;4879357;29;20028;-75
2022/09/20 02:07:19;;;;;;;2.53;0.80;;;;;;;;;;4862353;29;20063;-75
2022/09/20 02:09:55;;;;;;;5.00;1.10;;;;;;;;;;4862521;29;20040;-75
2022/09/20 02:12:22;;;;;;;2.08;0.73;;;;;;;;;;4862576;29;20278;-75
2022/09/20 02:15:08;;;;;;;5.30;0.88;;;;;;;;;;4862387;29;20080;-76
2022/09/20 02:17:53;;;;;;;2.25;0.75;;;;;;;;;;4862415;29;20058;-76
2022/09/20 02:20:32;;;;;;;1.75;0.60;;;;;;;;;;4879180;29;20443;-75
2022/09/20 02:23:13;;;;;;;1.75;0.90;;;;;;;;;;4862396;29;20026;-74
2022/09/20 02:26:02;;;;;;;2.80;0.77;;;;;;;;;;4862413;29;20033;-76
2022/09/20 02:28:34;;;;;;;1.05;0.50;;;;;;;;;;4862151;29;20044;-75
2022/09/20 02:31:19;;;;;;;2.10;0.70;;;;;;;;;;4862306;29;20033;-76
2022/09/20 02:33:45;;;;;;;2.70;0.70;;;;;;;;;;4862331;29;20033;-76
2022/09/20 02:36:30;;;;;;;1.00;0.50;;;;;;;;;;4879068;29;20029;-76
2022/09/20 02:39:10;;;;;;;1.92;0.70;;;;;;;;;;4862240;29;20376;-75
2022/09/20 02:41:52;;;;;;;1.65;0.55;;;;;;;;;;4861990;29;20490;-75
2022/09/20 02:44:24;;;;;;;2.88;0.50;;;;;;;;;;4862254;29;20435;-75
2022/09/20 02:46:55;;;;;;;1.55;0.70;;;;;;;;;;4862101;29;20032;-75
2022/09/20 02:49:27;;;;;;;1.30;0.50;;;;;;;;;;4861972;29;20033;-75
2022/09/20 02:51:57;;;;;;;1.13;0.70;;;;;;;;;;4862223;29;20487;-75
2022/09/20 02:54:50;;;;;;;3.08;0.60;;;;;;;;;;4862136;29;20116;-74
2022/09/20 02:57:25;;;;;;;1.95;0.63;;;;;;;;;;4848277;29;20401;-75
2022/09/20 03:00:00;;;;;;;3.58;0.77;;;;;;;;;;4861860;29;20521;-75
2022/09/20 03:02:30;;;;;;;4.82;0.82;;;;;;;;;;4862150;29;20029;-75
2022/09/20 03:04:56;;;;;;;1.98;0.93;;;;;;;;;;4862169;29;20088;-75
2022/09/20 03:07:28;;;;;;;1.92;0.77;;;;;;;;;;4878828;29;20109;-75
2022/09/20 03:09:55;;;;;;;3.83;0.68;;;;;;;;;;4862103;29;20479;-75
2022/09/20 03:12:33;;;;;;;1.35;0.73;;;;;;;;;;4879907;29;20376;-75
2022/09/20 03:15:05;;;;;;;4.65;0.70;;;;;;;;;;4865515;29;20037;-75
2022/09/20 03:17:45;;;;;;;4.40;0.75;;;;;;;;;;4865050;29;20056;-76
2022/09/20 03:20:26;;;;;;;1.02;0.52;;;;;;;;;;4865171;29;20088;-76
2022/09/20 03:22:55;;;;;;;2.42;0.60;;;;;;;;;;4881960;29;20390;-75
2022/09/20 03:25:33;;;;;;;1.80;0.70;;;;;;;;;;4882044;29;20040;-75
2022/09/20 03:28:18;;;;;;;2.22;0.65;;;;;;;;;;4864843;29;20053;-74
2022/09/20 03:31:03;;;;;;;1.40;0.80;;;;;;;;;;4865035;29;20093;-75
2022/09/20 03:33:49;;;;;;;1.13;0.60;;;;;;;;;;4881940;29;20411;-74
2022/09/20 03:36:34;;;;;;;2.92;0.60;;;;;;;;;;4864876;29;20093;-75
2022/09/20 03:39:18;;;;;;;2.28;0.88;;;;;;;;;;4881656;29;20069;-74
2022/09/20 03:41:56;;;;;;;1.65;0.70;;;;;;;;;;4864736;29;20056;-74
2022/09/20 03:44:32;;;;;;;4.80;1.00;;;;;;;;;;4849523;29;20448;-74
2022/09/20 03:47:07;;;;;;;1.92;0.75;;;;;;;;;;4864804;29;20511;-75
2022/09/20 03:49:52;;;;;;;1.85;0.90;;;;;;;;;;4864948;29;20066;-75
2022/09/20 03:52:18;;;;;;;3.22;1.00;;;;;;;;;;4864613;29;20029;-74
2022/09/20 03:54:47;;;;;;;1.33;0.57;;;;;;;;;;4864429;29;20033;-75
2022/09/20 03:57:33;;;;;;;1.45;0.70;;;;;;;;;;4881381;29;20021;-73
2022/09/20 04:00:19;;;;;;;3.45;0.80;;;;;;;;;;4864451;29;20131;-74
2022/09/20 04:02:58;;;;;;;2.28;0.90;;;;;;;;;;4864475;29;20431;-75
2022/09/20 04:05:36;;;;;;;2.63;0.75;;;;;;;;;;4864307;29;20120;-75
2022/09/20 04:08:06;;;;;;;1.63;0.70;;;;;;;;;;4864423;29;20052;-75
2022/09/20 04:10:44;;;;;;;1.40;0.60;;;;;;;;;;4864403;29;20097;-75
2022/09/20 04:13:13;;;;;;;2.20;0.82;;;;;;;;;;4864435;29;20040;-74
2022/09/20 04:16:05;;;;;;;4.03;0.82;;;;;;;;;;4864184;29;20478;-75
2022/09/20 04:18:34;;;;;;;1.17;0.50;;;;;;;;;;4850046;29;20040;-75
2022/09/20 04:21:11;;;;;;;2.22;0.70;;;;;;;;;;4864186;29;20096;-75
2022/09/20 04:23:50;;;;;;;1.63;0.70;;;;;;;;;;4863871;29;20045;-75
2022/09/20 04:26:20;;;;;;;1.50;0.70;;;;;;;;;;4864256;29;20029;-75
2022/09/20 04:28:48;;;;;;;9.07;0.70;;;;;;;;;;4863972;29;20085;-75
2022/09/20 04:31:20;;;;;;;1.40;0.70;;;;;;;;;;4864009;29;20035;-74
2022/09/20 04:33:48;;;;;;;4.13;1.02;;;;;;;;;;4864023;29;20416;-75
2022/09/20 04:36:29;;;;;;;1.90;0.80;;;;;;;;;;4863784;29;20029;-74
2022/09/20 04:39:15;;;;;;;1.15;0.60;;;;;;;;;;4863600;29;20036;-74
2022/09/20 04:41:41;;;;;;;1.30;0.70;;;;;;;;;;4880494;29;20085;-75
2022/09/20 04:44:16;;;;;;;2.72;0.70;;;;;;;;;;4863696;29;20033;-74
2022/09/20 04:47:01;;;;;;;2.22;0.60;;;;;;;;;;4880753;29;20514;-74
2022/09/20 04:49:36;;;;;;;3.50;0.73;;;;;;;;;;4863905;29;20041;-75
2022/09/20 04:52:12;;;;;;;1.25;0.57;;;;;;;;;;4863853;29;20056;-75
2022/09/20 04:54:38;;;;;;;1.85;0.80;;;;;;;;;;4863778;29;20033;-75
2022/09/20 04:57:07;;;;;;;1.08;0.40;;;;;;;;;;4880386;29;20080;-75
2022/09/20 04:59:52;;;;;;;1.73;0.60;;;;;;;;;;4880405;29;20056;-75
2022/09/20 05:02:38;;;;;;;1.42;0.50;;;;;;;;;;4880422;29;20029;-75
2022/09/20 05:05:40;;;;;;;2.10;0.50;;;;;;;;;;4862999;29;20029;-74
2022/09/20 05:08:21;;;;;;;2.30;0.60;;;;;;;;;;4804755;29;20045;-74
2022/09/20 05:10:53;;;;;;;1.80;0.60;;;;;;;;;;4878782;29;20403;-73
2022/09/20 05:13:38;;;;;;;2.58;0.70;;;;;;;;;;4888159;29;20474;-73
2022/09/20 05:16:10;;;;;;;1.65;0.70;;;;;;;;;;4863166;29;20107;-79
2022/09/20 05:18:39;;;;;;;2.50;0.75;;;;;;;;;;4862525;29;20033;-75
2022/09/20 05:21:14;;;;;;;1.45;0.65;;;;;;;;;;4862518;29;20402;-72
2022/09/20 05:24:10;;;;;;;1.38;0.52;;;;;;;;;;4867563;29;20117;-76
2022/09/20 05:26:59;;;;;;;1.23;0.52;;;;;;;;;;4845479;29;20042;-75
2022/09/20 05:29:35;;;;;;;1.27;0.63;;;;;;;;;;4879458;29;20029;-72
2022/09/20 05:32:04;;;;;;;1.60;0.40;;;;;;;;;;4879669;29;20033;-78
2022/09/20 05:34:41;;;;;;;1.00;0.40;;;;;;;;;;4862010;29;20037;-73
2022/09/20 05:37:26;;;;;;;1.25;0.45;;;;;;;;;;4846444;29;20468;-73
2022/09/20 05:39:54;;;;;;;3.60;0.70;;;;;;;;;;4875125;29;20048;-72
2022/09/20 05:42:22;;;;;;;0.88;0.40;;;;;;;;;;4860528;29;20057;-75
2022/09/20 05:45:07;;;;;;;1.48;0.55;;;;;;;;;;4860799;29;20030;-73
2022/09/20 05:47:54;;;;;;;2.45;0.50;;;;;;;;;;4874964;29;20394;-76
2022/09/20 05:50:35;;;;;;;1.63;0.50;;;;;;;;;;4860779;29;20071;-77
2022/09/20 05:53:10;;;;;;;1.45;0.60;;;;;;;;;;4874884;29;20120;-78
2022/09/20 05:55:42;;;;;;;1.20;0.50;;;;;;;;;;4860846;29;20025;-76
2022/09/20 05:58:08;;;;;;;1.60;0.38;;;;;;;;;;4874982;29;20026;-77
2022/09/20 06:00:39;;;;;;;3.55;0.40;;;;;;;;;;4860855;29;20395;-75
2022/09/20 06:03:11;;;;;;;1.23;0.50;;;;;;;;;;4860608;29;20024;-77
2022/09/20 06:05:55;;;;;;;1.80;0.63;;;;;;;;;;4860561;29;20040;-76
2022/09/20 06:08:39;;;;;;;1.75;0.57;;;;;;;;;;4860662;29;20025;-78
2022/09/20 06:11:24;;;;;;;2.05;0.63;;;;;;;;;;4874841;29;20033;-79
2022/09/20 06:14:02;;;;;;;3.45;0.63;;;;;;;;;;4877796;29;20037;-79
2022/09/20 06:16:38;;;;;;;1.33;0.50;;;;;;;;;;4862519;29;20479;-79
2022/09/20 06:19:04;;;;;;;1.45;0.60;;;;;;;;;;4878696;29;20025;-78
2022/09/20 06:21:30;;;;;;;1.38;0.50;;;;;;;;;;4862272;29;20088;-77
2022/09/20 06:23:58;;;;;;;2.47;0.70;;;;;;;;;;4862302;29;20058;-77
2022/09/20 06:26:26;;;;;;;0.90;0.40;;;;;;;;;;4862281;29;20029;-74
2022/09/20 06:28:59;;;;;;;1.08;0.43;;;;;;;;;;4861789;29;20032;-78
2022/09/20 06:31:25;;;;;;;1.38;0.43;;;;;;;;;;4862368;29;20392;-80
2022/09/20 06:33:59;;;;;;;1.10;0.30;;;;;;;;;;4878948;29;20028;-78
2022/09/20 06:42:16;;;;;;;1.65;0.28;;;;;;;;;;4888479;29;20468;-81
2022/09/20 06:44:42;;;;;;;0.65;0.32;;;;;;;;;;4886082;29;20024;-82
2022/09/20 06:47:12;;;;;;;1.05;0.40;;;;;;;;;;4870427;29;20139;-77
2022/09/20 06:49:40;;;;;;;1.75;0.40;;;;;;;;;;4872093;29;20087;-77
2022/09/20 06:52:16;;;;;;;1.10;0.40;;;;;;;;;;4878624;29;20052;-84
2022/09/20 06:54:44;;;;;;;1.60;0.30;;;;;;;;;;4869004;29;20468;-74
2022/09/20 06:57:12;;;;;;;1.02;0.40;;;;;;;;;;4876983;29;20036;-77
2022/09/20 06:59:38;;;;;;;1.80;0.55;;;;;;;;;;4865365;29;20410;-73
2022/09/20 07:02:04;;;;;;;1.60;0.43;;;;;;;;;;4865432;29;20367;-75
2022/09/20 07:04:31;;;;;;;2.03;0.60;;;;;;;;;;4865289;29;20125;-75
2022/09/20 07:07:01;;;;;;;0.73;0.30;;;;;;;;;;4882103;29;20394;-77
2022/09/20 07:09:27;;;;;;;1.58;0.40;;;;;;;;;;4881665;29;20025;-76
2022/09/20 07:11:54;;;;;;;0.73;0.40;;;;;;;;;;4862454;29;20033;-76
2022/09/20 07:14:21;;;;;;;1.25;0.40;;;;;;;;;;4863334;29;20077;-76
2022/09/20 07:16:47;;;;;;;1.20;0.40;;;;;;;;;;4862228;29;20120;-76
2022/09/20 07:19:14;;;;;;;2.45;0.65;;;;;;;;;;4861735;29;20030;-75
2022/09/20 07:21:40;;;;;;;1.02;0.30;;;;;;;;;;4862010;29;20189;-75
2022/09/20 07:24:06;;;;;;;3.53;0.68;;;;;;;;;;4861897;29;20030;-76
2022/09/20 07:26:33;;;;;;;0.90;0.38;;;;;;;;;;4863187;29;20128;-76
2022/09/20 07:29:00;;;;;;;2.17;0.47;;;;;;;;;;4861598;29;20030;-76
2022/09/20 07:31:27;;;;;;;1.92;0.60;;;;;;;;;;4861964;29;20034;-76
2022/09/20 07:33:53;;;;;;;1.83;0.50;;;;;;;;;;4861490;29;20116;-74
2022/09/20 07:36:20;;;;;;;0.88;0.40;;;;;;;;;;4861909;29;20128;-76
2022/09/20 07:38:50;;;;;;;2.17;0.63;;;;;;;;;;4862971;29;20029;-76
2022/09/20 07:41:21;;;;;;;0.90;0.43;;;;;;;;;;4861699;29;20056;-74
2022/09/20 07:43:49;;;;;;;1.77;0.60;;;;;;;;;;4863011;29;20128;-74
2022/09/20 07:46:15;;;;;;;1.50;0.50;;;;;;;;;;4861469;29;20029;-74
2022/09/20 07:48:41;;;;;;;2.10;0.65;;;;;;;;;;4862712;29;20032;-76
2022/09/20 07:51:09;;;;;;;1.38;0.52;;;;;;;;;;4861299;29;20029;-76
2022/09/20 07:53:35;;;;;;;1.00;0.50;;;;;;;;;;4862648;29;20042;-75
2022/09/20 07:56:03;;;;;;;1.30;0.40;;;;;;;;;;4871588;29;20029;-76
2022/09/20 07:58:29;;;;;;;0.75;0.32;;;;;;;;;;4879270;29;20458;-76
2022/09/20 08:00:57;;;;;;;7.07;0.73;;;;;;;;;;4880391;29;20120;-77
2022/09/20 08:03:23;;;;;;;0.82;0.50;;;;;;;;;;4880967;29;20032;-76
2022/09/20 08:05:49;;;;;;;0.90;0.40;;;;;;;;;;4879897;29;20037;-75
2022/09/20 08:08:16;;;;;;;1.98;0.60;;;;;;;;;;4880722;29;20036;-75
2022/09/20 08:10:44;;;;;;;2.13;0.68;;;;;;;;;;4879844;29;20120;-76
2022/09/20 08:13:11;;;;;;;1.15;0.50;;;;;;;;;;4865006;29;20451;-76
2022/09/20 08:15:37;;;;;;;1.33;0.60;;;;;;;;;;4866246;29;20028;-72
2022/09/20 08:18:03;;;;;;;1.80;0.80;;;;;;;;;;4879376;29;20040;-71
2022/09/20 08:20:29;;;;;;;2.08;0.60;;;;;;;;;;4879397;29;20505;-71
2022/09/20 08:22:58;;;;;;;0.93;0.52;;;;;;;;;;4879400;29;20029;-74
2022/09/20 08:25:24;;;;;;;0.82;0.40;;;;;;;;;;4880759;29;20112;-74
2022/09/20 08:27:53;;;;;;;2.00;0.50;;;;;;;;;;4879265;29;20044;-76
2022/09/20 08:30:20;;;;;;;1.25;0.63;;;;;;;;;;4879454;29;20069;-74
2022/09/20 08:32:46;;;;;;;1.45;0.50;;;;;;;;;;4880392;29;20029;-79
2022/09/20 08:35:13;;;;;;;1.48;0.60;;;;;;;;;;4879329;29;20487;-74
2022/09/20 08:37:40;;;;;;;1.38;0.60;;;;;;;;;;4879200;29;20061;-74
2022/09/20 08:40:06;;;;;;;1.95;0.50;;;;;;;;;;4879093;29;20037;-76
2022/09/20 08:42:35;;;;;;;1.08;0.55;;;;;;;;;;4889221;29;20391;-77
2022/09/20 08:45:11;;;;;;;1.00;0.50;;;;;;;;;;4890925;29;20024;-77
2022/09/20 08:47:45;;;;;;;1.15;0.40;;;;;;;;;;4888106;29;20033;-76
2022/09/20 08:50:14;;;;;;;1.45;0.50;;;;;;;;;;4872001;29;20035;-75
2022/09/20 08:52:43;;;;;;;1.15;0.52;;;;;;;;;;4889869;29;20036;-75
2022/09/20 08:55:19;;;;;;;1.60;0.52;;;;;;;;;;4869385;29;20128;-77
2022/09/20 08:57:53;;;;;;;1.48;0.55;;;;;;;;;;4871144;29;20555;-75
2022/09/20 09:00:20;;;;;;;1.05;0.50;;;;;;;;;;4871307;29;20044;-74
2022/09/20 09:02:47;;;;;;;1.17;0.50;;;;;;;;;;4885537;29;20419;-76
2022/09/20 09:05:32;;;;;;;3.40;0.70;;;;;;;;;;4873744;29;20033;-73
2022/09/20 09:08:03;;;;;;;1.75;0.45;;;;;;;;;;4871521;29;20029;-73
2022/09/20 09:10:39;;;;;;;2.22;0.40;;;;;;;;;;4872367;29;20364;-73
2022/09/20 09:13:05;;;;;;;0.93;0.50;;;;;;;;;;4870577;29;20035;-74
2022/09/20 09:15:36;;;;;;;0.90;0.50;;;;;;;;;;4893032;29;20068;-74
2022/09/20 09:18:02;;;;;;;4.20;0.55;;;;;;;;;;4887126;29;20065;-75
2022/09/20 09:20:28;;;;;;;1.00;0.50;;;;;;;;;;4879625;29;20041;-75
2022/09/20 09:23:09;;;;;;;1.00;0.38;;;;;;;;;;4862557;29;20033;-73
2022/09/20 09:25:38;;;;;;;1.00;0.50;;;;;;;;;;4894645;29;20112;-75
2022/09/20 09:28:08;;;;;;;2.88;0.60;;;;;;;;;;4881398;29;20029;-74
2022/09/20 09:30:38;;;;;;;2.17;0.55;;;;;;;;;;4898288;29;20036;-74
2022/09/20 09:33:24;;;;;;;1.50;0.50;;;;;;;;;;4881128;29;20390;-72
2022/09/20 09:35:59;;;;;;;1.45;0.47;;;;;;;;;;4862624;29;20029;-72
2022/09/20 09:38:27;;;;;;;1.33;0.70;;;;;;;;;;4862617;29;20029;-72
2022/09/20 09:40:57;;;;;;;1.95;0.80;;;;;;;;;;4879326;29;20070;-72
2022/09/20 09:43:29;;;;;;;1.60;0.60;;;;;;;;;;4879080;29;20120;-72
2022/09/20 09:46:13;;;;;;;2.13;0.70;;;;;;;;;;4862635;29;20144;-72
2022/09/20 09:48:39;;;;;;;2.67;0.60;;;;;;;;;;4879261;29;20032;-72
2022/09/20 09:51:10;;;;;;;1.20;0.68;;;;;;;;;;4878887;29;20032;-72
2022/09/20 09:53:36;;;;;;;1.42;0.65;;;;;;;;;;4879144;29;20051;-71
2022/09/20 09:56:05;;;;;;;1.25;0.70;;;;;;;;;;4862619;29;20064;-71
2022/09/20 09:58:56;;;;;;;0.85;0.60;;;;;;;;;;4862513;29;20029;-72
2022/09/20 10:01:35;;;;;;;1.40;0.50;;;;;;;;;;4862480;29;20093;-71
2022/09/20 10:04:10;;;;;;;2.55;0.50;;;;;;;;;;4879156;29;20025;-71
2022/09/20 10:06:47;;;;;;;1.92;0.50;;;;;;;;;;4862490;29;20044;-71
2022/09/20 10:09:13;;;;;;;0.80;0.50;;;;;;;;;;4878832;29;20037;-71
2022/09/20 10:11:45;;;;;;;0.80;0.50;;;;;;;;;;4878005;29;20487;-71
2022/09/20 10:14:11;;;;;;;0.68;0.40;;;;;;;;;;4859143;29;20432;-71
2022/09/20 10:17:00;;;;;;;1.40;0.47;;;;;;;;;;4859349;29;20472;-72
2022/09/20 10:19:45;;;;;;;1.10;0.47;;;;;;;;;;4860242;29;20036;-72
2022/09/20 10:22:20;;;;;;;2.72;0.52;;;;;;;;;;4863020;29;20390;-72
2022/09/20 10:24:50;;;;;;;0.80;0.47;;;;;;;;;;4862917;29;20052;-71
2022/09/20 10:27:25;;;;;;;3.70;0.60;;;;;;;;;;4863099;29;20089;-71
2022/09/20 10:29:58;;;;;;;2.85;0.75;;;;;;;;;;4864028;29;20025;-72
2022/09/20 10:32:32;;;;;;;1.60;0.70;;;;;;;;;;4862966;29;20132;-71
2022/09/20 10:35:02;;;;;;;1.20;0.60;;;;;;;;;;4862577;29;20068;-71
2022/09/20 10:37:51;;;;;;;1.42;0.65;;;;;;;;;;4862672;29;20061;-72
2022/09/20 10:43:13;;;;;;;1.88;0.77;;;;;;;;;;4901402;29;20100;-71
2022/09/20 10:43:34;;;;;;;0.80;0.50;;;;;;;;;;4891747;29;20041;-72
2022/09/20 10:46:03;;;;;;;1.20;0.60;;;;;;;;;;4881537;29;20041;-71
2022/09/20 10:48:38;;;;;;;1.73;0.60;;;;;;;;;;4874827;29;20021;-71
2022/09/20 10:51:11;;;;;;;1.80;0.70;;;;;;;;;;4881518;29;20033;-72
2022/09/20 10:53:41;;;;;;;1.45;0.55;;;;;;;;;;4864930;29;20029;-72
2022/09/20 10:56:22;;;;;;;1.23;0.50;;;;;;;;;;4881768;29;20052;-72
2022/09/20 10:59:02;;;;;;;2.05;0.70;;;;;;;;;;4870974;29;20043;-72
2022/09/20 11:01:36;;;;;;;0.85;0.30;;;;;;;;;;4882132;29;20089;-72
2022/09/20 11:04:21;;;;;;;1.38;0.50;;;;;;;;;;4880803;29;20033;-72
2022/09/20 11:06:50;;;;;;;1.17;0.57;;;;;;;;;;4880846;29;20432;-73
2022/09/20 11:09:21;;;;;;;1.42;0.50;;;;;;;;;;4882060;29;20036;-72
2022/09/20 11:11:50;;;;;;;1.20;0.52;;;;;;;;;;4877835;29;20033;-72
2022/09/20 11:14:32;;;;;;;1.35;0.55;;;;;;;;;;4882248;29;20108;-71
2022/09/20 11:17:12;;;;;;;1.65;0.60;;;;;;;;;;4865247;29;20044;-71
2022/09/20 11:19:59;;;;;;;1.00;0.50;;;;;;;;;;4881857;29;20037;-72
2022/09/20 11:22:37;;;;;;;2.67;0.40;;;;;;;;;;4864916;29;20033;-72
2022/09/20 11:25:12;;;;;;;5.03;0.40;;;;;;;;;;4881852;29;20033;-71
2022/09/20 11:27:54;;;;;;;1.45;0.30;;;;;;;;;;4881538;29;20084;-72
2022/09/20 11:30:22;;;;;;;0.60;0.30;;;;;;;;;;4871410;29;20449;-72
2022/09/20 11:32:54;;;;;;;1.70;0.52;;;;;;;;;;4882423;29;20436;-72
2022/09/20 11:35:36;;;;;;;4.13;0.52;;;;;;;;;;4900200;29;20371;-70
2022/09/20 11:38:02;;;;;;;1.38;0.65;;;;;;;;;;4883327;29;20039;-71
2022/09/20 11:40:30;;;;;;;1.30;0.70;;;;;;;;;;4886177;29;20065;-70
2022/09/20 11:42:58;;;;;;;2.15;0.70;;;;;;;;;;4863957;29;20049;-71
2022/09/20 11:45:26;;;;;;;1.20;0.47;;;;;;;;;;4864520;29;20029;-71
2022/09/20 11:47:54;;;;;;;2.33;0.57;;;;;;;;;;4864500;29;20120;-72
2022/09/20 11:50:41;;;;;;;2.10;0.80;;;;;;;;;;4881504;29;20426;-73
2022/09/20 11:53:14;;;;;;;1.00;0.50;;;;;;;;;;4864383;29;20036;-72
2022/09/20 11:55:58;;;;;;;2.15;0.50;;;;;;;;;;4864652;29;20033;-70
2022/09/20 11:58:26;;;;;;;1.63;0.80;;;;;;;;;;4864348;29;20128;-71
2022/09/20 12:00:53;;;;;;;1.63;0.90;;;;;;;;;;4864177;29;20129;-69
2022/09/20 12:03:37;;;;;;;0.90;0.45;;;;;;;;;;4864243;29;20043;-76
2022/09/20 12:06:04;;;;;;;2.83;0.60;;;;;;;;;;4893478;29;20044;-73
2022/09/20 12:08:38;;;;;;;1.23;0.45;;;;;;;;;;4880846;29;20037;-75
2022/09/20 12:11:06;;;;;;;0.88;0.40;;;;;;;;;;4880843;29;20025;-70
2022/09/20 12:13:35;;;;;;;0.77;0.40;;;;;;;;;;4863934;29;20033;-70
2022/09/20 12:16:06;;;;;;;1.50;0.60;;;;;;;;;;4864291;29;20036;-73
2022/09/20 12:18:35;;;;;;;1.52;0.50;;;;;;;;;;4864014;29;20119;-73
2022/09/20 12:21:11;;;;;;;0.70;0.40;;;;;;;;;;4863875;29;20063;-72
2022/09/20 12:23:41;;;;;;;0.70;0.32;;;;;;;;;;4880757;29;20446;-72
2022/09/20 12:26:11;;;;;;;1.27;0.50;;;;;;;;;;4864064;29;20029;-73
2022/09/20 12:28:39;;;;;;;0.73;0.30;;;;;;;;;;4880622;29;20108;-72
2022/09/20 12:31:32;;;;;;;1.27;0.28;;;;;;;;;;4863623;29;20514;-73
2022/09/20 12:34:12;;;;;;;2.72;0.30;;;;;;;;;;4880221;29;20502;-72
2022/09/20 12:36:42;;;;;;;1.63;0.52;;;;;;;;;;4863742;29;20030;-73
2022/09/20 12:39:09;;;;;;;1.83;0.60;;;;;;;;;;4863573;29;20382;-73
2022/09/20 12:41:53;;;;;;;1.02;0.50;;;;;;;;;;4863906;29;20448;-72
2022/09/20 12:44:19;;;;;;;1.08;0.38;;;;;;;;;;4863583;29;20045;-73
2022/09/20 12:47:12;;;;;;;2.67;0.95;;;;;;;;;;4880245;29;20028;-72
2022/09/20 12:52:52;;;;;;;1.17;0.38;;;;;;;;;;4880520;29;20156;-73
2022/09/20 12:55:28;;;;;;;0.80;0.22;;;;;;;;;;4880424;29;20021;-71
2022/09/20 12:58:17;;;;;;;1.67;0.30;;;;;;;;;;4863226;29;20033;-73
2022/09/20 13:00:58;;;;;;;1.10;0.40;;;;;;;;;;4880107;29;20037;-71
2022/09/20 13:03:27;;;;;;;0.75;0.30;;;;;;;;;;4863356;29;20475;-71
2022/09/20 13:08:35;;;;;;;5.95;1.10;;;;;;;;;;4879834;29;20051;-71
2022/09/20 13:11:15;;;;;;;0.93;0.30;;;;;;;;;;4879911;29;20021;-71
2022/09/20 13:13:41;;;;;;;1.77;0.40;;;;;;;;;;4879977;29;20063;-72
2022/09/20 13:16:18;;;;;;;1.80;0.50;;;;;;;;;;4879952;29;20025;-72
2022/09/20 13:18:46;;;;;;;1.67;0.50;;;;;;;;;;4880055;29;20463;-74
2022/09/20 13:21:12;;;;;;;0.20;0.10;;;;;;;;;;4879490;29;20045;-73
2022/09/20 13:23:45;;;;;;;0.50;0.30;;;;;;;;;;4879572;29;20475;-73
2022/09/20 13:26:14;;;;;;;0.77;0.30;;;;;;;;;;4879863;29;20068;-72
2022/09/20 13:28:47;;;;;;;0.70;0.30;;;;;;;;;;4879671;29;20169;-72
2022/09/20 13:31:23;;;;;;;0.80;0.30;;;;;;;;;;4879437;29;20036;-72
2022/09/20 13:33:49;;;;;;;1.05;0.30;;;;;;;;;;4862903;29;20549;-73
2022/09/20 13:36:25;;;;;;;0.52;0.20;;;;;;;;;;4862947;29;20484;-73
2022/09/20 13:38:52;;;;;;;0.35;0.17;;;;;;;;;;4865259;29;20028;-73
2022/09/20 13:41:18;;;;;;;1.60;0.30;;;;;;;;;;4881419;29;20136;-73
2022/09/20 13:43:48;;;;;;;1.63;0.50;;;;;;;;;;4868418;29;20139;-73
2022/09/20 13:46:16;;;;;;;2.00;0.30;;;;;;;;;;4879731;29;20036;-73
2022/09/20 13:48:42;;;;;;;1.30;0.25;;;;;;;;;;4862661;29;20025;-72
2022/09/20 13:51:23;;;;;;;0.52;0.17;;;;;;;;;;4862409;29;20081;-73
2022/09/20 13:53:50;;;;;;;0.65;0.20;;;;;;;;;;4879395;29;20076;-73
2022/09/20 13:56:20;;;;;;;0.38;0.10;;;;;;;;;;4878843;29;20386;-72
2022/09/20 13:58:47;;;;;;;0.20;0.10;;;;;;;;;;4879260;29;20017;-71
2022/09/20 14:01:21;;;;;;;0.40;0.20;;;;;;;;;;4878740;29;20045;-72
2022/09/20 14:03:47;;;;;;;0.65;0.20;;;;;;;;;;4879202;29;20505;-74
2022/09/20 14:06:14;;;;;;;0.25;0.20;;;;;;;;;;4862250;29;20074;-74
2022/09/20 14:08:48;;;;;;;0.60;0.30;;;;;;;;;;4881532;29;20032;-74
2022/09/20 14:11:15;;;;;;;;;;;;;;;;;;4898020;29;20036;-72
2022/09/20 14:13:42;;;;;;;1.10;0.38;;;;;;;;;;4880930;29;19918;-74
2022/09/20 14:16:09;;;;;;;0.73;0.40;;;;;;;;;;4878999;29;20036;-72
2022/09/20 14:18:36;;;;;;;1.77;0.77;;;;;;;;;;4879026;29;20479;-70
2022/09/20 14:21:03;;;;;;;1.38;0.50;;;;;;;;;;4862203;29;20041;-74
2022/09/20 14:23:29;;;;;;;1.52;0.60;;;;;;;;;;4878941;29;20509;-72
2022/09/20 14:26:05;;;;;;;0.75;0.30;;;;;;;;;;4879143;29;20081;-71
2022/09/20 14:28:31;;;;;;;1.10;0.30;;;;;;;;;;4877623;29;20458;-72
2022/09/20 14:31:08;;;;;;;1.40;0.40;;;;;;;;;;4878589;29;20386;-73
2022/09/20 14:33:40;;;;;;;1.08;0.38;;;;;;;;;;4879098;29;20033;-74
2022/09/20 14:36:12;;;;;;;1.58;0.65;;;;;;;;;;4879042;29;20047;-71
2022/09/20 14:38:38;;;;;;;3.95;0.90;;;;;;;;;;4878668;29;20108;-72
2022/09/20 14:41:04;;;;;;;1.35;0.68;;;;;;;;;;4878652;29;20045;-74
2022/09/20 14:43:34;;;;;;;1.45;0.60;;;;;;;;;;4878659;29;20099;-73
2022/09/20 14:46:15;;;;;;;3.42;0.95;;;;;;;;;;4876470;29;20043;-71
2022/09/20 14:48:41;;;;;;;1.95;0.85;;;;;;;;;;4878213;29;20033;-72
2022/09/20 14:51:08;;;;;;;1.35;0.68;;;;;;;;;;4879921;29;20029;-73
2022/09/20 14:53:37;;;;;;;1.30;0.60;;;;;;;;;;4875234;29;20031;-72
2022/09/20 14:56:05;;;;;;;1.92;0.63;;;;;;;;;;4897640;29;20033;-72
2022/09/20 14:58:32;;;;;;;1.60;0.50;;;;;;;;;;4897619;29;20103;-71
2022/09/20 15:01:01;;;;;;;2.05;0.50;;;;;;;;;;4897523;29;20478;-72
2022/09/20 15:03:34;;;;;;;2.13;0.57;;;;;;;;;;4878148;29;20024;-72
2022/09/20 15:06:00;;;;;;;1.00;0.50;;;;;;;;;;4897629;29;20063;-71
2022/09/20 15:08:26;;;;;;;1.35;0.52;;;;;;;;;;4882110;29;20545;-72
2022/09/20 15:10:53;;;;;;;1.27;0.50;;;;;;;;;;4884065;29;20525;-73
2022/09/20 15:13:19;;;;;;;2.65;0.50;;;;;;;;;;4877719;29;20132;-72
2022/09/20 15:15:49;;;;;;;1.17;0.60;;;;;;;;;;4889471;29;20051;-73
2022/09/20 15:18:27;;;;;;;1.83;0.93;;;;;;;;;;4874168;29;20058;-72
2022/09/20 15:20:54;;;;;;;2.05;1.25;;;;;;;;;;4886968;29;20383;-71
2022/09/20 15:23:20;;;;;;;4.63;2.53;;;;;;;;;;4890608;29;20028;-74
2022/09/20 15:25:50;;;;;;;3.95;2.38;;;;;;;;;;4870385;29;20029;-72
2022/09/20 15:28:16;;;;;;;4.57;2.10;;;;;;;;;;4875818;29;20025;-72